createdAt,value
2019-03-01T00:00:42.521Z,1002.37
2019-03-01T00:01:48.030Z,1002.33
2019-03-01T00:02:53.543Z,1002.34
2019-03-01T00:03:59.065Z,1002.33
2019-03-01T00:05:04.562Z,1002.31
2019-03-01T00:06:10.078Z,1002.32
2019-03-01T00:07:15.611Z,1002.30
2019-03-01T00:08:21.106Z,1002.30
2019-03-01T00:09:26.634Z,1002.31
2019-03-01T00:10:32.114Z,1002.35
2019-03-01T00:11:37.632Z,1002.28
2019-03-01T00:12:43.147Z,1002.28
2019-03-01T00:13:48.648Z,1002.28
2019-03-01T00:14:54.167Z,1002.28
2019-03-01T00:15:59.675Z,1002.27
2019-03-01T00:17:05.186Z,1002.26
2019-03-01T00:18:10.701Z,1002.24
2019-03-01T00:19:16.208Z,1002.29
2019-03-01T00:20:21.728Z,1002.24
2019-03-01T00:21:27.228Z,1002.25
2019-03-01T00:22:32.745Z,1002.25
2019-03-01T00:23:38.252Z,1002.23
2019-03-01T00:24:43.763Z,1002.18
2019-03-01T00:25:49.280Z,1002.16
2019-03-01T00:26:54.784Z,1002.21
2019-03-01T00:28:00.304Z,1002.14
2019-03-01T00:29:05.813Z,1002.15
2019-03-01T00:30:11.319Z,1002.17
2019-03-01T00:31:16.831Z,1002.12
2019-03-01T00:32:22.341Z,1002.12
2019-03-01T00:33:27.861Z,1002.11
2019-03-01T00:34:33.362Z,1002.09
2019-03-01T00:35:38.883Z,1002.09
2019-03-01T00:36:44.387Z,1002.10
2019-03-01T00:37:49.894Z,1002.06
2019-03-01T00:38:55.404Z,1002.11
2019-03-01T00:40:00.917Z,1002.03
2019-03-01T00:41:06.425Z,1002.03
2019-03-01T00:42:11.939Z,1002.04
2019-03-01T00:43:17.453Z,1002.00
2019-03-01T00:44:23.002Z,1002.02
2019-03-01T00:45:28.482Z,1002.05
2019-03-01T00:46:33.986Z,1002.05
2019-03-01T00:47:39.504Z,1002.06
2019-03-01T00:48:45.003Z,1002.05
2019-03-01T00:49:50.513Z,1002.06
2019-03-01T00:50:56.023Z,1002.05
2019-03-01T00:52:01.535Z,1002.01
2019-03-01T00:53:07.049Z,1002.00
2019-03-01T00:54:12.569Z,1001.97
2019-03-01T00:55:18.070Z,1001.96
2019-03-01T00:56:23.581Z,1001.96
2019-03-01T00:57:29.100Z,1001.94
2019-03-01T00:58:34.602Z,1001.95
2019-03-01T00:59:40.115Z,1001.91
2019-03-01T01:00:45.627Z,1001.90
2019-03-01T01:01:51.133Z,1001.93
2019-03-01T01:02:56.660Z,1001.92
2019-03-01T01:04:02.156Z,1001.92
2019-03-01T01:05:07.664Z,1001.92
2019-03-01T01:06:13.189Z,1001.92
2019-03-01T01:07:18.688Z,1001.91
2019-03-01T01:08:24.203Z,1001.94
2019-03-01T01:09:29.715Z,1001.92
2019-03-01T01:10:35.230Z,1001.86
2019-03-01T01:11:40.742Z,1001.87
2019-03-01T01:12:46.242Z,1001.90
2019-03-01T01:13:51.764Z,1001.82
2019-03-01T01:14:57.263Z,1001.85
2019-03-01T01:16:02.772Z,1001.77
2019-03-01T01:17:08.284Z,1001.79
2019-03-01T01:18:13.798Z,1001.78
2019-03-01T01:19:19.309Z,1001.76
2019-03-01T01:20:24.821Z,1001.76
2019-03-01T01:21:30.325Z,1001.68
2019-03-01T01:22:35.856Z,1001.71
2019-03-01T01:23:41.350Z,1001.70
2019-03-01T01:24:46.859Z,1001.65
2019-03-01T01:25:52.379Z,1001.65
2019-03-01T01:26:57.885Z,1001.67
2019-03-01T01:28:03.401Z,1001.62
2019-03-01T01:29:08.908Z,1001.56
2019-03-01T01:30:14.413Z,1001.55
2019-03-01T01:31:19.927Z,1001.53
2019-03-01T01:32:25.439Z,1001.49
2019-03-01T01:33:30.951Z,1001.48
2019-03-01T01:34:36.462Z,1001.49
2019-03-01T01:35:41.971Z,1001.52
2019-03-01T01:36:47.485Z,1001.48
2019-03-01T01:37:52.989Z,1001.48
2019-03-01T01:38:58.500Z,1001.50
2019-03-01T01:40:04.015Z,1001.42
2019-03-01T01:41:09.527Z,1001.47
2019-03-01T01:42:15.036Z,1001.45
2019-03-01T01:43:20.555Z,1001.38
2019-03-01T01:44:26.059Z,1001.43
2019-03-01T01:45:31.565Z,1001.37
2019-03-01T01:46:37.081Z,1001.38
2019-03-01T01:47:42.590Z,1001.38
2019-03-01T01:48:48.098Z,1001.36
2019-03-01T01:49:53.608Z,1001.39
2019-03-01T01:50:59.123Z,1001.38
2019-03-01T01:52:04.646Z,1001.34
2019-03-01T01:53:10.160Z,1001.36
2019-03-01T01:54:15.666Z,1001.35
2019-03-01T01:55:21.178Z,1001.35
2019-03-01T01:56:26.675Z,1001.30
2019-03-01T01:57:32.184Z,1001.32
2019-03-01T01:58:37.715Z,1001.30
2019-03-01T01:59:43.216Z,1001.27
2019-03-01T02:00:48.754Z,1001.29
2019-03-01T02:01:54.229Z,1001.24
2019-03-01T02:02:59.742Z,1001.26
2019-03-01T02:04:05.263Z,1001.27
2019-03-01T02:05:10.763Z,1001.23
2019-03-01T02:06:16.275Z,1001.25
2019-03-01T02:07:21.789Z,1001.24
2019-03-01T02:08:27.294Z,1001.23
2019-03-01T02:09:32.807Z,1001.23
2019-03-01T02:10:38.323Z,1001.26
2019-03-01T02:11:43.829Z,1001.22
2019-03-01T02:12:49.336Z,1001.24
2019-03-01T02:13:54.852Z,1001.25
2019-03-01T02:15:00.362Z,1001.23
2019-03-01T02:16:05.876Z,1001.25
2019-03-01T02:17:11.384Z,1001.26
2019-03-01T02:18:16.895Z,1001.24
2019-03-01T02:19:22.405Z,1001.26
2019-03-01T02:20:27.912Z,1001.24
2019-03-01T02:21:33.424Z,1001.24
2019-03-01T02:22:38.945Z,1001.23
2019-03-01T02:23:44.445Z,1001.19
2019-03-01T02:24:49.957Z,1001.20
2019-03-01T02:25:55.483Z,1001.25
2019-03-01T02:27:00.978Z,1001.19
2019-03-01T02:28:06.490Z,1001.18
2019-03-01T02:29:12.001Z,1001.20
2019-03-01T02:30:17.512Z,1001.18
2019-03-01T02:31:23.025Z,1001.20
2019-03-01T02:32:28.544Z,1001.13
2019-03-01T02:33:34.050Z,1001.15
2019-03-01T02:34:39.557Z,1001.12
2019-03-01T02:35:45.069Z,1001.15
2019-03-01T02:36:50.583Z,1001.10
2019-03-01T02:37:56.091Z,1001.14
2019-03-01T02:39:01.604Z,1001.09
2019-03-01T02:40:07.121Z,1001.07
2019-03-01T02:41:12.622Z,1001.06
2019-03-01T02:42:18.130Z,1001.04
2019-03-01T02:43:23.642Z,1000.98
2019-03-01T02:44:29.165Z,1000.98
2019-03-01T02:45:34.662Z,1000.96
2019-03-01T02:46:40.181Z,1000.95
2019-03-01T02:47:45.697Z,1000.95
2019-03-01T02:48:51.198Z,1000.90
2019-03-01T02:49:56.712Z,1000.95
2019-03-01T02:51:02.220Z,1000.94
2019-03-01T02:52:07.733Z,1000.94
2019-03-01T02:53:13.249Z,1000.91
2019-03-01T02:54:18.760Z,1000.94
2019-03-01T02:55:24.263Z,1000.95
2019-03-01T02:56:29.780Z,1000.96
2019-03-01T02:57:35.306Z,1000.91
2019-03-01T02:58:40.793Z,1000.93
2019-03-01T02:59:46.312Z,1000.94
2019-03-01T03:00:51.815Z,1000.93
2019-03-01T03:01:57.346Z,1000.94
2019-03-01T03:03:02.843Z,1000.94
2019-03-01T03:04:08.345Z,1000.95
2019-03-01T03:05:13.856Z,1000.96
2019-03-01T03:06:19.371Z,1000.96
2019-03-01T03:07:24.882Z,1000.89
2019-03-01T03:08:30.390Z,1000.91
2019-03-01T03:09:35.914Z,1000.92
2019-03-01T03:10:41.414Z,1000.86
2019-03-01T03:11:46.925Z,1000.85
2019-03-01T03:12:52.437Z,1000.87
2019-03-01T03:13:57.943Z,1000.87
2019-03-01T03:15:03.460Z,1000.85
2019-03-01T03:16:08.972Z,1000.84
2019-03-01T03:17:14.479Z,1000.84
2019-03-01T03:18:19.993Z,1000.85
2019-03-01T03:19:25.500Z,1000.88
2019-03-01T03:20:31.006Z,1000.85
2019-03-01T03:21:36.527Z,1000.87
2019-03-01T03:22:42.031Z,1000.88
2019-03-01T03:23:47.541Z,1000.91
2019-03-01T03:24:53.057Z,1000.92
2019-03-01T03:25:58.563Z,1000.92
2019-03-01T03:27:04.077Z,1000.91
2019-03-01T03:28:09.593Z,1000.89
2019-03-01T03:29:15.101Z,1000.89
2019-03-01T03:30:20.610Z,1000.81
2019-03-01T03:31:26.132Z,1000.84
2019-03-01T03:32:31.640Z,1000.82
2019-03-01T03:33:37.153Z,1000.79
2019-03-01T03:34:42.653Z,1000.78
2019-03-01T03:35:48.166Z,1000.73
2019-03-01T03:36:53.676Z,1000.76
2019-03-01T03:37:59.184Z,1000.75
2019-03-01T03:39:04.696Z,1000.75
2019-03-01T03:40:10.208Z,1000.76
2019-03-01T03:41:15.715Z,1000.72
2019-03-01T03:42:21.228Z,1000.68
2019-03-01T03:43:26.746Z,1000.70
2019-03-01T03:44:32.251Z,1000.71
2019-03-01T03:45:37.759Z,1000.67
2019-03-01T03:46:43.274Z,1000.73
2019-03-01T03:47:48.786Z,1000.71
2019-03-01T03:48:54.298Z,1000.73
2019-03-01T03:49:59.802Z,1000.70
2019-03-01T03:51:05.316Z,1000.69
2019-03-01T03:52:10.827Z,1000.73
2019-03-01T03:53:16.341Z,1000.72
2019-03-01T03:54:21.849Z,1000.72
2019-03-01T03:55:27.405Z,1000.72
2019-03-01T03:56:32.869Z,1000.69
2019-03-01T03:57:38.386Z,1000.71
2019-03-01T03:58:43.889Z,1000.73
2019-03-01T03:59:49.402Z,1000.70
2019-03-01T04:00:54.910Z,1000.71
2019-03-01T04:02:00.429Z,1000.69
2019-03-01T04:03:05.932Z,1000.72
2019-03-01T04:04:11.452Z,1000.73
2019-03-01T04:05:16.958Z,1000.71
2019-03-01T04:06:22.467Z,1000.75
2019-03-01T04:07:27.977Z,1000.72
2019-03-01T04:08:33.501Z,1000.70
2019-03-01T04:09:38.999Z,1000.65
2019-03-01T04:10:44.587Z,1000.70
2019-03-01T04:11:50.022Z,1000.69
2019-03-01T04:12:55.530Z,1000.69
2019-03-01T04:14:01.053Z,1000.69
2019-03-01T04:15:06.552Z,1000.69
2019-03-01T04:16:12.065Z,1000.64
2019-03-01T04:17:17.574Z,1000.64
2019-03-01T04:18:23.084Z,1000.66
2019-03-01T04:19:28.595Z,1000.64
2019-03-01T04:20:34.109Z,1000.65
2019-03-01T04:21:39.619Z,1000.64
2019-03-01T04:22:45.131Z,1000.65
2019-03-01T04:23:50.649Z,1000.61
2019-03-01T04:24:56.149Z,1000.60
2019-03-01T04:26:01.658Z,1000.58
2019-03-01T04:27:07.170Z,1000.58
2019-03-01T04:28:12.683Z,1000.60
2019-03-01T04:29:18.206Z,1000.59
2019-03-01T04:30:23.705Z,1000.58
2019-03-01T04:31:29.222Z,1000.57
2019-03-01T04:32:34.730Z,1000.53
2019-03-01T04:33:40.240Z,1000.58
2019-03-01T04:34:45.748Z,1000.61
2019-03-01T04:35:51.265Z,1000.56
2019-03-01T04:36:56.769Z,1000.58
2019-03-01T04:38:02.281Z,1000.54
2019-03-01T04:39:07.795Z,1000.57
2019-03-01T04:40:13.301Z,1000.58
2019-03-01T04:41:18.815Z,1000.55
2019-03-01T04:42:24.325Z,1000.55
2019-03-01T04:43:29.837Z,1000.56
2019-03-01T04:44:35.359Z,1000.54
2019-03-01T04:45:40.855Z,1000.56
2019-03-01T04:46:46.366Z,1000.61
2019-03-01T04:47:51.882Z,1000.55
2019-03-01T04:48:57.386Z,1000.54
2019-03-01T04:50:02.897Z,1000.57
2019-03-01T04:51:08.408Z,1000.61
2019-03-01T04:52:13.921Z,1000.56
2019-03-01T04:53:19.434Z,1000.60
2019-03-01T04:54:24.950Z,1000.60
2019-03-01T04:55:30.459Z,1000.61
2019-03-01T04:56:35.969Z,1000.65
2019-03-01T04:57:41.472Z,1000.65
2019-03-01T04:58:46.983Z,1000.63
2019-03-01T04:59:52.498Z,1000.65
2019-03-01T05:00:58.008Z,1000.64
2019-03-01T05:02:03.519Z,1000.67
2019-03-01T05:03:09.032Z,1000.66
2019-03-01T05:04:14.540Z,1000.67
2019-03-01T05:05:20.052Z,1000.70
2019-03-01T05:06:25.562Z,1000.67
2019-03-01T05:07:31.082Z,1000.66
2019-03-01T05:08:36.585Z,1000.66
2019-03-01T05:09:42.096Z,1000.68
2019-03-01T05:10:47.607Z,1000.68
2019-03-01T05:11:53.126Z,1000.67
2019-03-01T05:12:58.626Z,1000.64
2019-03-01T05:14:04.139Z,1000.69
2019-03-01T05:15:09.651Z,1000.67
2019-03-01T05:16:15.167Z,1000.63
2019-03-01T05:17:20.672Z,1000.66
2019-03-01T05:18:26.182Z,1000.64
2019-03-01T05:19:31.692Z,1000.66
2019-03-01T05:20:37.202Z,1000.66
2019-03-01T05:21:42.713Z,1000.72
2019-03-01T05:22:48.228Z,1000.72
2019-03-01T05:23:53.735Z,1000.73
2019-03-01T05:24:59.245Z,1000.75
2019-03-01T05:26:04.768Z,1000.75
2019-03-01T05:27:10.268Z,1000.77
2019-03-01T05:28:15.778Z,1000.72
2019-03-01T05:29:21.300Z,1000.73
2019-03-01T05:30:26.807Z,1000.76
2019-03-01T05:31:32.309Z,1000.74
2019-03-01T05:32:37.822Z,1000.76
2019-03-01T05:33:43.339Z,1000.74
2019-03-01T05:34:48.844Z,1000.77
2019-03-01T05:35:54.356Z,1000.73
2019-03-01T05:36:59.864Z,1000.75
2019-03-01T05:38:05.379Z,1000.75
2019-03-01T05:39:10.891Z,1000.78
2019-03-01T05:40:16.397Z,1000.72
2019-03-01T05:41:21.907Z,1000.78
2019-03-01T05:42:27.420Z,1000.77
2019-03-01T05:43:32.931Z,1000.73
2019-03-01T05:44:38.450Z,1000.74
2019-03-01T05:45:43.953Z,1000.79
2019-03-01T05:46:49.468Z,1000.78
2019-03-01T05:47:54.981Z,1000.76
2019-03-01T05:49:00.487Z,1000.77
2019-03-01T05:50:07.084Z,1000.72
2019-03-01T05:51:11.519Z,1000.79
2019-03-01T05:52:17.018Z,1000.78
2019-03-01T05:53:22.537Z,1000.78
2019-03-01T05:54:28.040Z,1000.80
2019-03-01T05:55:33.553Z,1000.82
2019-03-01T05:56:39.060Z,1000.79
2019-03-01T05:57:44.584Z,1000.77
2019-03-01T05:58:50.088Z,1000.85
2019-03-01T05:59:55.594Z,1000.82
2019-03-01T06:01:01.115Z,1000.79
2019-03-01T06:02:06.619Z,1000.85
2019-03-01T06:03:12.130Z,1000.81
2019-03-01T06:04:17.645Z,1000.84
2019-03-01T06:05:24.974Z,1000.82
2019-03-01T06:06:28.658Z,1000.85
2019-03-01T06:07:34.173Z,1000.91
2019-03-01T06:08:39.680Z,1000.90
2019-03-01T06:09:45.190Z,1000.89
2019-03-01T06:10:50.780Z,1000.89
2019-03-01T06:11:56.214Z,1000.92
2019-03-01T06:13:01.714Z,1000.94
2019-03-01T06:14:07.236Z,1000.94
2019-03-01T06:15:12.745Z,1000.95
2019-03-01T06:16:18.263Z,1000.97
2019-03-01T06:17:23.769Z,1000.97
2019-03-01T06:18:29.285Z,1001.00
2019-03-01T06:19:34.794Z,1001.00
2019-03-01T06:20:40.299Z,1001.02
2019-03-01T06:21:45.812Z,1001.02
2019-03-01T06:22:51.324Z,1001.02
2019-03-01T06:23:56.832Z,1001.00
2019-03-01T06:25:02.350Z,1001.04
2019-03-01T06:26:07.864Z,1001.10
2019-03-01T06:27:13.373Z,1001.07
2019-03-01T06:28:18.877Z,1001.08
2019-03-01T06:29:24.389Z,1001.09
2019-03-01T06:30:29.897Z,1001.08
2019-03-01T06:31:35.410Z,1001.12
2019-03-01T06:32:42.275Z,1001.10
2019-03-01T06:33:46.429Z,1001.09
2019-03-01T06:34:51.941Z,1001.13
2019-03-01T06:35:57.454Z,1001.10
2019-03-01T06:37:02.962Z,1001.17
2019-03-01T06:38:08.477Z,1001.15
2019-03-01T06:39:13.983Z,1001.14
2019-03-01T06:40:19.498Z,1001.16
2019-03-01T06:41:25.008Z,1001.17
2019-03-01T06:42:30.516Z,1001.17
2019-03-01T06:43:36.025Z,1001.17
2019-03-01T06:44:41.537Z,1001.18
2019-03-01T06:45:47.048Z,1001.21
2019-03-01T06:46:52.558Z,1001.19
2019-03-01T06:47:58.072Z,1001.17
2019-03-01T06:49:03.584Z,1001.21
2019-03-01T06:50:09.094Z,1001.24
2019-03-01T06:51:14.605Z,1001.19
2019-03-01T06:52:20.115Z,1001.21
2019-03-01T06:53:25.632Z,1001.23
2019-03-01T06:54:31.141Z,1001.24
2019-03-01T06:55:36.659Z,1001.23
2019-03-01T06:56:42.158Z,1001.22
2019-03-01T06:57:47.668Z,1001.22
2019-03-01T06:58:53.182Z,1001.20
2019-03-01T06:59:58.685Z,1001.21
2019-03-01T07:01:04.199Z,1001.17
2019-03-01T07:02:09.709Z,1001.17
2019-03-01T07:03:15.224Z,1001.19
2019-03-01T07:04:20.740Z,1001.20
2019-03-01T07:05:26.243Z,1001.20
2019-03-01T07:06:31.754Z,1001.18
2019-03-01T07:07:37.265Z,1001.20
2019-03-01T07:08:42.777Z,1001.19
2019-03-01T07:09:48.289Z,1001.22
2019-03-01T07:10:53.800Z,1001.25
2019-03-01T07:11:59.319Z,1001.27
2019-03-01T07:13:04.825Z,1001.29
2019-03-01T07:14:10.333Z,1001.33
2019-03-01T07:15:15.844Z,1001.34
2019-03-01T07:16:21.354Z,1001.35
2019-03-01T07:17:26.872Z,1001.36
2019-03-01T07:18:32.372Z,1001.40
2019-03-01T07:19:37.889Z,1001.39
2019-03-01T07:20:43.397Z,1001.43
2019-03-01T07:21:48.910Z,1001.41
2019-03-01T07:22:54.426Z,1001.43
2019-03-01T07:23:59.971Z,1001.41
2019-03-01T07:25:05.440Z,1001.45
2019-03-01T07:26:10.946Z,1001.43
2019-03-01T07:27:16.463Z,1001.46
2019-03-01T07:28:21.974Z,1001.45
2019-03-01T07:29:27.483Z,1001.48
2019-03-01T07:30:32.994Z,1001.53
2019-03-01T07:31:38.503Z,1001.58
2019-03-01T07:32:44.017Z,1001.52
2019-03-01T07:33:49.526Z,1001.54
2019-03-01T07:34:55.036Z,1001.53
2019-03-01T07:36:00.550Z,1001.51
2019-03-01T07:37:06.062Z,1001.52
2019-03-01T07:38:11.569Z,1001.55
2019-03-01T07:39:17.085Z,1001.60
2019-03-01T07:40:22.594Z,1001.59
2019-03-01T07:41:28.101Z,1001.61
2019-03-01T07:42:33.616Z,1001.62
2019-03-01T07:43:39.124Z,1001.66
2019-03-01T07:44:44.633Z,1001.70
2019-03-01T07:45:50.145Z,1001.71
2019-03-01T07:46:55.657Z,1001.68
2019-03-01T07:48:01.168Z,1001.72
2019-03-01T07:49:06.676Z,1001.70
2019-03-01T07:50:12.191Z,1001.70
2019-03-01T07:51:17.702Z,1001.71
2019-03-01T07:52:23.211Z,1001.71
2019-03-01T07:53:28.721Z,1001.72
2019-03-01T07:54:34.240Z,1001.70
2019-03-01T07:55:39.746Z,1001.79
2019-03-01T07:56:45.255Z,1001.78
2019-03-01T07:57:50.766Z,1001.77
2019-03-01T07:58:57.461Z,1001.77
2019-03-01T08:00:01.801Z,1001.83
2019-03-01T08:01:07.299Z,1001.80
2019-03-01T08:02:12.812Z,1001.80
2019-03-01T08:03:18.324Z,1001.82
2019-03-01T08:04:28.543Z,1001.86
2019-03-01T08:05:29.343Z,1001.86
2019-03-01T08:06:34.873Z,1001.88
2019-03-01T08:07:40.367Z,1001.88
2019-03-01T08:08:45.880Z,1001.86
2019-03-01T08:09:51.388Z,1001.89
2019-03-01T08:10:57.426Z,1001.88
2019-03-01T08:12:03.727Z,1001.94
2019-03-01T08:13:07.925Z,1001.89
2019-03-01T08:14:13.432Z,1001.95
2019-03-01T08:15:18.944Z,1001.96
2019-03-01T08:16:25.249Z,1002.00
2019-03-01T08:17:31.593Z,1002.05
2019-03-01T08:18:35.474Z,1002.07
2019-03-01T08:19:40.991Z,1002.07
2019-03-01T08:20:46.501Z,1002.08
2019-03-01T08:21:52.013Z,1002.09
2019-03-01T08:22:59.926Z,1002.09
2019-03-01T08:24:03.029Z,1002.15
2019-03-01T08:25:08.564Z,1002.16
2019-03-01T08:26:14.053Z,1002.17
2019-03-01T08:27:19.562Z,1002.15
2019-03-01T08:28:25.074Z,1002.14
2019-03-01T08:29:33.627Z,1002.19
2019-03-01T08:30:36.102Z,1002.18
2019-03-01T08:31:41.604Z,1002.21
2019-03-01T08:32:47.129Z,1002.22
2019-03-01T08:33:52.626Z,1002.18
2019-03-01T08:34:58.140Z,1002.24
2019-03-01T08:36:05.721Z,1002.23
2019-03-01T08:37:09.160Z,1002.28
2019-03-01T08:38:14.691Z,1002.26
2019-03-01T08:39:20.192Z,1002.31
2019-03-01T08:40:25.692Z,1002.36
2019-03-01T08:41:31.209Z,1002.37
2019-03-01T08:42:37.426Z,1002.39
2019-03-01T08:43:44.646Z,1002.42
2019-03-01T08:44:47.737Z,1002.40
2019-03-01T08:45:53.249Z,1002.43
2019-03-01T08:46:58.755Z,1002.44
2019-03-01T08:48:04.276Z,1002.48
2019-03-01T08:49:10.612Z,1002.45
2019-03-01T08:50:15.286Z,1002.48
2019-03-01T08:51:22.702Z,1002.50
2019-03-01T08:52:26.324Z,1002.49
2019-03-01T08:53:31.822Z,1002.51
2019-03-01T08:54:37.338Z,1002.52
2019-03-01T08:55:42.859Z,1002.56
2019-03-01T08:56:50.300Z,1002.56
2019-03-01T08:57:53.867Z,1002.57
2019-03-01T08:58:59.387Z,1002.57
2019-03-01T09:00:04.890Z,1002.55
2019-03-01T09:01:10.400Z,1002.52
2019-03-01T09:02:15.909Z,1002.58
2019-03-01T09:03:22.976Z,1002.58
2019-03-01T09:04:26.942Z,1002.58
2019-03-01T09:05:32.440Z,1002.55
2019-03-01T09:06:37.964Z,1002.59
2019-03-01T09:07:43.464Z,1002.59
2019-03-01T09:08:48.976Z,1002.58
2019-03-01T09:09:57.207Z,1002.63
2019-03-01T09:10:59.998Z,1002.60
2019-03-01T09:12:05.507Z,1002.65
2019-03-01T09:13:11.025Z,1002.67
2019-03-01T09:14:16.535Z,1002.69
2019-03-01T09:15:22.040Z,1002.67
2019-03-01T09:16:27.551Z,1002.70
2019-03-01T09:17:33.062Z,1002.70
2019-03-01T09:18:38.572Z,1002.71
2019-03-01T09:19:44.085Z,1002.76
2019-03-01T09:20:49.592Z,1002.79
2019-03-01T09:21:55.099Z,1002.75
2019-03-01T09:23:04.980Z,1002.75
2019-03-01T09:24:06.140Z,1002.76
2019-03-01T09:25:11.652Z,1002.76
2019-03-01T09:26:20.038Z,1002.80
2019-03-01T09:27:22.860Z,1002.79
2019-03-01T09:28:28.175Z,1002.85
2019-03-01T09:29:41.255Z,1002.84
2019-03-01T09:30:40.305Z,1002.85
2019-03-01T09:31:44.699Z,1002.88
2019-03-01T09:32:50.207Z,1002.96
2019-03-01T09:33:56.524Z,1002.96
2019-03-01T09:35:04.389Z,1002.94
2019-03-01T09:36:06.743Z,1002.95
2019-03-01T09:37:12.255Z,1002.97
2019-03-01T09:38:17.775Z,1003.04
2019-03-01T09:39:23.274Z,1003.04
2019-03-01T09:40:29.660Z,1003.06
2019-03-01T09:41:36.697Z,1003.06
2019-03-01T09:42:39.805Z,1003.06
2019-03-01T09:43:45.315Z,1003.10
2019-03-01T09:44:50.822Z,1003.06
2019-03-01T09:45:56.342Z,1003.10
2019-03-01T09:47:02.515Z,1003.11
2019-03-01T09:48:08.646Z,1003.14
2019-03-01T09:49:12.870Z,1003.14
2019-03-01T09:50:18.388Z,1003.18
2019-03-01T09:51:23.890Z,1003.18
2019-03-01T09:52:29.409Z,1003.20
2019-03-01T09:53:35.226Z,1003.24
2019-03-01T09:54:40.430Z,1003.24
2019-03-01T09:55:45.934Z,1003.26
2019-03-01T09:56:51.451Z,1003.26
2019-03-01T09:57:56.952Z,1003.25
2019-03-01T09:59:02.461Z,1003.25
2019-03-01T10:00:07.981Z,1003.27
2019-03-01T10:01:13.484Z,1003.30
2019-03-01T10:02:18.993Z,1003.36
2019-03-01T10:03:24.510Z,1003.35
2019-03-01T10:04:30.024Z,1003.37
2019-03-01T10:05:35.529Z,1003.37
2019-03-01T10:06:41.038Z,1003.40
2019-03-01T10:07:46.556Z,1003.38
2019-03-01T10:08:52.057Z,1003.42
2019-03-01T10:09:58.230Z,1003.44
2019-03-01T10:11:03.082Z,1003.46
2019-03-01T10:12:08.597Z,1003.45
2019-03-01T10:13:14.104Z,1003.47
2019-03-01T10:14:20.406Z,1003.49
2019-03-01T10:15:25.124Z,1003.50
2019-03-01T10:16:30.633Z,1003.49
2019-03-01T10:17:36.141Z,1003.57
2019-03-01T10:18:41.651Z,1003.49
2019-03-01T10:19:47.174Z,1003.50
2019-03-01T10:20:52.676Z,1003.53
2019-03-01T10:21:58.185Z,1003.50
2019-03-01T10:23:03.695Z,1003.53
2019-03-01T10:24:09.204Z,1003.55
2019-03-01T10:25:14.713Z,1003.54
2019-03-01T10:26:20.228Z,1003.57
2019-03-01T10:27:25.740Z,1003.56
2019-03-01T10:28:31.256Z,1003.55
2019-03-01T10:29:36.763Z,1003.58
2019-03-01T10:30:42.266Z,1003.57
2019-03-01T10:31:47.777Z,1003.60
2019-03-01T10:32:53.289Z,1003.62
2019-03-01T10:33:58.800Z,1003.64
2019-03-01T10:35:04.307Z,1003.67
2019-03-01T10:36:09.821Z,1003.72
2019-03-01T10:37:15.337Z,1003.71
2019-03-01T10:38:20.837Z,1003.75
2019-03-01T10:39:26.359Z,1003.76
2019-03-01T10:40:31.859Z,1003.77
2019-03-01T10:41:37.373Z,1003.82
2019-03-01T10:42:42.906Z,1003.85
2019-03-01T10:43:48.390Z,1003.84
2019-03-01T10:44:53.901Z,1003.89
2019-03-01T10:45:59.411Z,1003.88
2019-03-01T10:47:04.922Z,1003.94
2019-03-01T10:48:10.433Z,1003.92
2019-03-01T10:49:15.940Z,1003.92
2019-03-01T10:50:21.461Z,1003.96
2019-03-01T10:51:26.962Z,1003.97
2019-03-01T10:52:32.482Z,1003.98
2019-03-01T10:53:37.989Z,1003.99
2019-03-01T10:54:43.492Z,1004.00
2019-03-01T10:55:49.005Z,1004.03
2019-03-01T10:56:54.514Z,1004.03
2019-03-01T10:58:00.045Z,1004.10
2019-03-01T10:59:05.542Z,1004.08
2019-03-01T11:00:11.052Z,1004.14
2019-03-01T11:01:16.559Z,1004.11
2019-03-01T11:02:22.067Z,1004.17
2019-03-01T11:03:27.593Z,1004.13
2019-03-01T11:04:33.091Z,1004.16
2019-03-01T11:05:38.602Z,1004.15
2019-03-01T11:06:44.111Z,1004.17
2019-03-01T11:07:49.617Z,1004.16
2019-03-01T11:08:55.134Z,1004.19
2019-03-01T11:10:00.639Z,1004.23
2019-03-01T11:11:06.147Z,1004.23
2019-03-01T11:12:11.660Z,1004.24
2019-03-01T11:13:17.190Z,1004.26
2019-03-01T11:14:22.689Z,1004.28
2019-03-01T11:15:28.191Z,1004.26
2019-03-01T11:16:33.699Z,1004.26
2019-03-01T11:17:39.210Z,1004.31
2019-03-01T11:18:44.773Z,1004.29
2019-03-01T11:19:50.235Z,1004.30
2019-03-01T11:20:55.743Z,1004.27
2019-03-01T11:22:01.252Z,1004.31
2019-03-01T11:23:06.762Z,1004.28
2019-03-01T11:24:12.274Z,1004.32
2019-03-01T11:25:17.783Z,1004.27
2019-03-01T11:26:23.291Z,1004.33
2019-03-01T11:27:28.802Z,1004.31
2019-03-01T11:28:34.315Z,1004.32
2019-03-01T11:29:39.825Z,1004.33
2019-03-01T11:30:45.343Z,1004.31
2019-03-01T11:31:50.862Z,1004.36
2019-03-01T11:32:56.352Z,1004.31
2019-03-01T11:34:01.869Z,1004.24
2019-03-01T11:35:07.378Z,1004.28
2019-03-01T11:36:12.886Z,1004.30
2019-03-01T11:37:18.395Z,1004.34
2019-03-01T11:38:23.912Z,1004.33
2019-03-01T11:39:29.414Z,1004.38
2019-03-01T11:40:34.929Z,1004.41
2019-03-01T11:41:40.447Z,1004.42
2019-03-01T11:42:45.948Z,1004.41
2019-03-01T11:43:51.465Z,1004.42
2019-03-01T11:44:56.972Z,1004.43
2019-03-01T11:46:02.479Z,1004.43
2019-03-01T11:47:07.984Z,1004.45
2019-03-01T11:48:13.502Z,1004.45
2019-03-01T11:49:19.007Z,1004.46
2019-03-01T11:50:24.519Z,1004.45
2019-03-01T11:51:30.025Z,1004.47
2019-03-01T11:52:35.538Z,1004.47
2019-03-01T11:53:41.049Z,1004.47
2019-03-01T11:54:46.553Z,1004.51
2019-03-01T11:55:52.063Z,1004.52
2019-03-01T11:56:57.576Z,1004.52
2019-03-01T11:58:03.084Z,1004.52
2019-03-01T11:59:08.600Z,1004.48
2019-03-01T12:00:14.115Z,1004.52
2019-03-01T12:01:19.617Z,1004.51
2019-03-01T12:02:25.130Z,1004.52
2019-03-01T12:03:30.639Z,1004.54
2019-03-01T12:04:36.151Z,1004.51
2019-03-01T12:05:41.658Z,1004.59
2019-03-01T12:06:47.173Z,1004.53
2019-03-01T12:07:52.677Z,1004.58
2019-03-01T12:08:58.203Z,1004.54
2019-03-01T12:10:03.699Z,1004.56
2019-03-01T12:11:09.212Z,1004.57
2019-03-01T12:12:14.722Z,1004.59
2019-03-01T12:13:20.238Z,1004.57
2019-03-01T12:14:25.738Z,1004.60
2019-03-01T12:15:31.259Z,1004.60
2019-03-01T12:16:36.758Z,1004.59
2019-03-01T12:17:42.299Z,1004.61
2019-03-01T12:18:47.890Z,1004.64
2019-03-01T12:19:53.294Z,1004.64
2019-03-01T12:20:58.799Z,1004.66
2019-03-01T12:22:04.314Z,1004.68
2019-03-01T12:23:09.823Z,1004.69
2019-03-01T12:24:15.334Z,1004.71
2019-03-01T12:25:20.840Z,1004.72
2019-03-01T12:26:26.365Z,1004.74
2019-03-01T12:27:31.863Z,1004.72
2019-03-01T12:28:37.376Z,1004.77
2019-03-01T12:29:42.883Z,1004.80
2019-03-01T12:30:48.391Z,1004.81
2019-03-01T12:31:53.915Z,1004.79
2019-03-01T12:32:59.415Z,1004.81
2019-03-01T12:34:04.974Z,1004.84
2019-03-01T12:35:10.434Z,1004.88
2019-03-01T12:36:15.945Z,1004.88
2019-03-01T12:37:21.465Z,1004.90
2019-03-01T12:38:26.965Z,1004.95
2019-03-01T12:39:32.477Z,1005.02
2019-03-01T12:40:37.997Z,1005.07
2019-03-01T12:41:43.501Z,1005.12
2019-03-01T12:42:49.008Z,1005.09
2019-03-01T12:43:54.517Z,1005.13
2019-03-01T12:45:00.036Z,1005.18
2019-03-01T12:46:05.546Z,1005.21
2019-03-01T12:47:11.053Z,1005.24
2019-03-01T12:48:16.560Z,1005.24
2019-03-01T12:49:22.072Z,1005.23
2019-03-01T12:50:27.591Z,1005.24
2019-03-01T12:51:33.088Z,1005.26
2019-03-01T12:52:38.600Z,1005.23
2019-03-01T12:53:44.109Z,1005.26
2019-03-01T12:54:49.625Z,1005.29
2019-03-01T12:55:55.130Z,1005.31
2019-03-01T12:57:00.643Z,1005.27
2019-03-01T12:58:06.158Z,1005.35
2019-03-01T12:59:11.663Z,1005.34
2019-03-01T13:00:17.174Z,1005.38
2019-03-01T13:01:22.687Z,1005.35
2019-03-01T13:02:28.190Z,1005.43
2019-03-01T13:03:33.702Z,1005.44
2019-03-01T13:04:39.208Z,1005.41
2019-03-01T13:05:44.720Z,1005.42
2019-03-01T13:06:50.227Z,1005.47
2019-03-01T13:07:55.740Z,1005.48
2019-03-01T13:09:01.248Z,1005.47
2019-03-01T13:10:07.046Z,1005.47
2019-03-01T13:11:12.482Z,1005.44
2019-03-01T13:12:17.780Z,1005.43